フラブロヴォ空港の過去48時間の天気

フラブロヴォ空港 (Kaliningrad/Khrabrovo Airport)

現在時刻: 7/16 20:13 EET (7/16 18:13 UTC) 以下の時間は現地時間です。

過去48時間のMETAR気象情報
時間 風向 風速(m/s) 視程 気温(℃) 湿度(%) 気圧(hPa) 天気現象
16 19:30 西北西 4 10km以上 18 88 1012
16 19:00 西北西 4 10km以上 18 88 1012
16 18:30 北北西 3 10km以上 18 94 1012
16 18:00 北西 4 10km以上 18 94 1012
16 17:30 西北西 3 10km以上 19 83 1012
16 17:00 西北西 2 10km以上 18 88 1012 弱いしゅう雨
16 16:30 北西 3 10km以上 18 88 1012 弱いしゅう雨
16 16:00 3 10km以上 18 88 1012 弱い雷雨
16 15:30 不定 1 10km以上 18 83 1012 弱い雷雨
16 15:00 西北西 4 10km以上 19 73 1012
16 14:30 西 5 10km以上 20 73 1011
16 14:00 西 5 10km以上 21 69 1011
16 13:30 西南西 6 10km以上 22 69 1011
16 13:00 西南西 7 10km以上 23 69 1011
16 12:30 南南西 5 10km以上 22 69 1011
16 12:00 南西 5 10km以上 23 69 1011
16 11:30 南西 4 10km以上 23 65 1010
16 11:00 2 10km以上 23 57 1010
16 10:30 3 10km以上 22 65 1010
16 10:00 2 10km以上 20 73 1010
16 09:30 3 10km以上 19 73 1010
16 09:00 3 10km以上 19 73 1010
16 08:30 3 10km以上 19 78 1010
16 08:00 東南東 3 10km以上 18 77 1010
16 07:30 南東 3 10km以上 18 77 1009
16 07:00 東南東 2 10km以上 15 88 1009
16 06:30 南東 3 10km以上 14 88 1009
16 06:00 南東 2 10km以上 14 88 1010
16 05:30 南東 2 10km以上 13 88 1010
16 05:00 東南東 2 10km以上 12 88 1010
16 04:30 東南東 2 10km以上 13 88 1010
16 04:00 東南東 2 10km以上 12 94 1010
16 03:30 南東 1 10km以上 13 88 1010
16 03:00 東南東 2 10km以上 12 100 1010
16 02:30 東南東 2 10km以上 13 94 1010
16 02:00 東南東 2 10km以上 14 94 1011
16 01:30 南東 3 10km以上 14 94 1011
16 01:00 南東 2 10km以上 15 94 1011
16 00:30 南東 2 10km以上 14 94 1011
16 00:00 東南東 2 10km以上 14 94 1011
15 23:30 東南東 2 10km以上 15 94 1011
15 23:00 南東 2 10km以上 15 94 1011
15 22:30 南東 2 9000m 14 94 1011
15 22:00 東南東 2 10km以上 16 82 1011
15 21:30 2 10km以上 17 83 1011
15 21:00 東南東 2 10km以上 18 77 1011
15 20:30 2 10km以上 20 73 1011
15 20:00 東北東 3 10km以上 20 73 1011
15 19:30 東北東 4 10km以上 21 60 1011
15 19:00 北東 4 10km以上 22 53 1011
15 18:30 北東 4 10km以上 23 50 1012
15 18:00 北東 4 10km以上 23 47 1012
15 17:30 北東 4 10km以上 24 44 1012
15 17:00 東北東 4 10km以上 24 44 1012
15 16:30 北東 4 10km以上 24 44 1012
15 16:00 北東 5 10km以上 25 39 1012
15 15:30 東北東 5 10km以上 25 39 1013
15 15:00 東北東 5 10km以上 24 50 1013
15 14:30 東北東 4 10km以上 25 47 1013
15 14:00 2 9000m 25 47 1013
15 13:30 南東 2 10km以上 24 44 1013
15 13:00 南西 2 10km以上 24 44 1013
15 12:30 2 10km以上 24 47 1013
15 12:00 2 10km以上 24 50 1013
15 11:30 南南東 2 10km以上 23 50 1013
15 11:00 南東 2 10km以上 23 50 1013
15 10:30 東南東 3 10km以上 23 50 1013
15 10:00 南東 3 10km以上 22 53 1013
15 09:30 南東 3 10km以上 21 60 1013
15 09:00 東南東 2 10km以上 20 73 1013
15 08:30 東南東 2 10km以上 19 78 1013
15 08:00 2 10km以上 17 83 1014
15 07:30 2 10km以上 15 94 1014
15 07:00 東南東 2 10km以上 14 94 1014
15 06:30 東北東 2 10km以上 12 100 1014
15 06:00 東北東 2 10km以上 11 100 1014
15 05:30 不定 1 10km以上 9 100 1014 散在した霧
15 05:00 不定 1 4800m 9 93 1014 散在した霧 もや
15 04:30 東南東 1 3200m 8 100 1014 部分霧 もや
15 04:00 東北東 2 1000m 8 100 1014 部分霧 もや
15 03:30 東北東 1 200m 9 93 1014 部分霧
15 03:00 静穏 0 400m 9 93 1014 部分霧
15 02:30 静穏 0 350m 9 100 1014 部分霧
15 02:00 静穏 0 350m 9 100 1014 部分霧
15 01:30 静穏 0 250m 9 100 1014 部分霧
15 01:00 静穏 0 9000m 10 94 1014 部分霧
15 00:30 静穏 0 9000m 10 100 1014 部分霧
15 00:00 静穏 0 10km以上 11 94 1014 もや
14 23:30 静穏 0 8000m 11 94 1014
14 23:00 1 10km以上 11 94 1015
14 22:30 静穏 0 10km以上 13 94 1015
14 22:00 静穏 0 10km以上 13 94 1015
14 21:30 東南東 1 10km以上 14 88 1015
14 21:00 東南東 1 10km以上 15 88 1015
14 20:30 2 10km以上 17 83 1015
UMKK 161730Z 30004MPS CAVOK 18/16 Q1012 R24/19//95 NOSIG RMK QFE758/1011
UMKK 161700Z 30004MPS 9999 FEW040 18/16 Q1012 R24/19//95 NOSIG RMK QFE758/1011
UMKK 161630Z 33003MPS 290V350 9999 SCT033CB 18/17 Q1012 R24/290095 NOSIG RMK QFE758/1010
UMKK 161600Z 32004MPS 9999 SCT033CB 18/17 Q1012 R24/290095 NOSIG RMK QFE758/1010
UMKK 161530Z 30003MPS 260V320 9999 SCT033CB 19/16 Q1012 R24/290095 NOSIG RMK QFE758/1010
UMKK 161500Z 30002MPS 9999 -SHRA SCT033CB 18/16 Q1012 R06/290095 NOSIG RMK QFE758/1011
UMKK 161430Z 32003MPS 290V040 9999 -SHRA SCT032CB 18/16 Q1012 RETS R06/290095 NOSIG RMK QFE758/1011
UMKK 161400Z 01003MPS 9999 -TSRA SCT030CB 18/16 Q1012 R06/290095 NOSIG RMK QFE758/1011
UMKK 161330Z VRB01MPS 9999 -TSRA SCT030CB 18/15 Q1012 R06/CLRD95 NOSIG RMK QFE758/1011
UMKK 161300Z 29004MPS 9999 FEW030 19/14 Q1012 R24/95D TEMPO VRB07G15MPS 1200 TSRA SCT004 BKN016CB RMK QFE757/1010
UMKK 161230Z 28005MPS 260V320 9999 FEW030 20/15 Q1011 R24/95D TEMPO VRB07G15MPS 1200 TSRA SCT004 BKN016CB RMK QFE757/1010
UMKK 161200Z 26005MPS 9999 FEW030 21/15 Q1011 R24/95D NOSIG RMK QFE757/1010
UMKK 161130Z 24006MPS 9999 FEW030 22/16 Q1011 R24/CLRD95 NOSIG RMK QFE757/1009
UMKK 161100Z 24007MPS 9999 FEW030 23/17 Q1011 R24/95D NOSIG RMK QFE757/1009
UMKK 161030Z 21005MPS 180V240 CAVOK 22/16 Q1011 R24/CLRD95 NOSIG RMK QFE757/1009
UMKK 161000Z 23005MPS CAVOK 23/17 Q1011 R24/95D NOSIG RMK QFE757/1009
UMKK 160930Z 23004MPS 190V280 CAVOK 23/16 Q1010 R24/95D NOSIG RMK QFE756/1009
UMKK 160900Z 19002MPS 120V240 CAVOK 23/14 Q1010 R24/CLRD95 NOSIG RMK QFE756/1008
UMKK 160830Z 19003MPS 150V230 CAVOK 22/15 Q1010 R24/CLRD95 NOSIG RMK QFE756/1008
UMKK 160800Z 17002MPS 130V220 CAVOK 20/15 Q1010 R24/CLRD95 NOSIG RMK QFE756/1008
UMKK 160730Z 17003MPS 140V210 CAVOK 19/14 Q1010 R24/CLRD95 NOSIG RMK QFE756/1008
UMKK 160700Z 17003MPS 130V230 CAVOK 19/14 Q1010 R24/CLRD95 NOSIG RMK QFE756/1008
UMKK 160630Z 17003MPS 130V200 CAVOK 19/15 Q1010 R24/CLRD95 NOSIG RMK QFE756/1008
UMKK 160600Z 12003MPS 100V170 CAVOK 18/14 Q1010 R24/CLRD95 NOSIG RMK QFE756/1008
UMKK 160530Z 13003MPS 110V170 CAVOK 18/14 Q1009 R24/CLRD95 NOSIG RMK QFE756/1008
UMKK 160500Z 12002MPS CAVOK 15/13 Q1009 R24/CLRD95 NOSIG RMK QFE756/1008
UMKK 160430Z 13003MPS CAVOK 14/12 Q1009 R24/CLRD95 NOSIG RMK QFE756/1008
UMKK 160400Z 14002MPS 110V170 CAVOK 14/12 Q1010 R24/CLRD95 NOSIG RMK QFE756/1008
UMKK 160330Z 13002MPS CAVOK 13/11 Q1010 R24/CLRD95 NOSIG RMK QFE756/1008
UMKK 160300Z 11002MPS CAVOK 12/10 Q1010 R24/CLRD95 NOSIG RMK QFE756/1008
UMKK 160230Z 12002MPS CAVOK 13/11 Q1010 R24/CLRD95 NOSIG RMK QFE756/1008
UMKK 160200Z 11002MPS CAVOK 12/11 Q1010 R24/CLRD95 NOSIG RMK QFE756/1009
UMKK 160130Z 13001MPS CAVOK 13/11 Q1010 R24/CLRD95 NOSIG RMK QFE756/1009
UMKK 160100Z 12002MPS CAVOK 12/12 Q1010 R24/CLRD95 NOSIG RMK QFE756/1009
UMKK 160030Z 11002MPS CAVOK 13/12 Q1010 R24/CLRD95 NOSIG RMK QFE757/1009
UMKK 160000Z 12002MPS CAVOK 14/13 Q1011 R24/CLRD95 NOSIG RMK QFE757/1009
UMKK 152330Z 13003MPS CAVOK 14/13 Q1011 R24/CLRD95 NOSIG RMK QFE757/1009
UMKK 152300Z 13002MPS CAVOK 15/14 Q1011 R24/CLRD95 NOSIG RMK QFE757/1009
UMKK 152230Z 13002MPS CAVOK 14/13 Q1011 R24/CLRD95 NOSIG RMK QFE757/1010
UMKK 152200Z 11002MPS CAVOK 14/13 Q1011 R24/CLRD95 NOSIG RMK QFE757/1010
UMKK 152130Z 11002MPS CAVOK 15/14 Q1011 R24/CLRD95 NOSIG RMK QFE757/1010
UMKK 152100Z 13002MPS CAVOK 15/14 Q1011 R24/CLRD95 NOSIG RMK QFE757/1010
UMKK 152030Z 14002MPS 9000 NSC 14/13 Q1011 R24/95D NOSIG RMK QFE757/1010
UMKK 152000Z 12002MPS CAVOK 16/13 Q1011 R24/95D NOSIG RMK QFE757/1010
UMKK 151930Z 10002MPS CAVOK 17/14 Q1011 R24/95D NOSIG RMK QFE757/1010
UMKK 151900Z 11002MPS CAVOK 18/14 Q1011 R24/95D NOSIG RMK QFE757/1010
UMKK 151830Z 08002MPS CAVOK 20/15 Q1011 R24/CLRD95 NOSIG RMK QFE757/1010
UMKK 151800Z 06003MPS CAVOK 20/15 Q1011 R24/95D NOSIG RMK QFE757/1010
UMKK 151730Z 06004MPS CAVOK 21/13 Q1011 R24/CLRD95 NOSIG RMK QFE757/1010
UMKK 151700Z 05004MPS CAVOK 22/12 Q1011 R24/CLRD95 NOSIG RMK QFE757/1010
UMKK 151630Z 05004MPS 010V070 CAVOK 23/12 Q1012 R24/95D NOSIG RMK QFE757/1010
UMKK 151600Z 05004MPS CAVOK 23/11 Q1012 R24/95D NOSIG RMK QFE758/1010
UMKK 151530Z 05004MPS CAVOK 24/11 Q1012 R24/95D NOSIG RMK QFE758/1010
UMKK 151500Z 06004MPS CAVOK 24/11 Q1012 R24/95D NOSIG RMK QFE758/1011
UMKK 151430Z 05004MPS 020V090 CAVOK 24/11 Q1012 R06/CLRD95 NOSIG RMK QFE758/1011
UMKK 151400Z 05005MPS 020V090 CAVOK 25/10 Q1012 R06/95D NOSIG RMK QFE758/1011
UMKK 151330Z 06005MPS CAVOK 25/10 Q1013 R06/95D NOSIG RMK QFE758/1011
UMKK 151300Z 07005MPS 030V100 CAVOK 24/13 Q1013 R24/CLRD95 NOSIG RMK QFE758/1011
UMKK 151230Z 07004MPS 040V110 CAVOK 25/13 Q1013 R24/95D NOSIG RMK QFE758/1011
UMKK 151200Z 10002MPS 9000 NSC 25/13 Q1013 R24/95D NOSIG RMK QFE758/1011
UMKK 151130Z 13002MPS CAVOK 24/11 Q1013 R24/CLRD95 NOSIG RMK QFE758/1011
UMKK 151100Z 22002MPS 150V300 CAVOK 24/11 Q1013 R24/CLRD95 NOSIG RMK QFE758/1011
UMKK 151030Z 18002MPS 130V240 CAVOK 24/12 Q1013 R24/CLRD95 NOSIG RMK QFE758/1011
UMKK 151000Z 10002MPS CAVOK 24/13 Q1013 R24/95D NOSIG RMK QFE758/1011
UMKK 150930Z 16002MPS 090V230 CAVOK 23/12 Q1013 R24/95D NOSIG RMK QFE759/1012
UMKK 150900Z 13002MPS 090V170 CAVOK 23/12 Q1013 R06/CLRD95 NOSIG RMK QFE758/1011
UMKK 150830Z 12003MPS 080V190 CAVOK 23/12 Q1013 R06/CLRD95 NOSIG RMK QFE758/1011
UMKK 150800Z 14003MPS CAVOK 22/12 Q1013 R06/95D NOSIG RMK QFE758/1011
UMKK 150730Z 13003MPS 080V170 CAVOK 21/13 Q1013 R24/CLRD95 NOSIG RMK QFE759/1012
UMKK 150700Z 12002MPS 070V160 CAVOK 20/15 Q1013 R24/CLRD95 NOSIG RMK QFE759/1012
UMKK 150630Z 12002MPS 090V180 CAVOK 19/15 Q1013 R24/CLRD95 NOSIG RMK QFE759/1012
UMKK 150600Z 10002MPS CAVOK 17/14 Q1014 R24/95D NOSIG RMK QFE759/1012
UMKK 150530Z 10002MPS 080V150 CAVOK 15/14 Q1014 R24/CLRD95 NOSIG RMK QFE759/1012
UMKK 150500Z 11002MPS CAVOK 14/13 Q1014 R24/CLRD95 NOSIG RMK QFE759/1012
UMKK 150430Z 07002MPS CAVOK 12/12 Q1014 R06/CLRD95 NOSIG RMK QFE759/1012
UMKK 150400Z 07002MPS CAVOK 11/11 Q1014 R06/95D NOSIG RMK QFE759/1012
UMKK 150330Z VRB01MPS 9999 BCFG NSC 09/09 Q1014 R06/95D NOSIG RMK QFE759/1012
UMKK 150300Z VRB01MPS 4800 2000S BCFG BR SCT003 09/08 Q1014 R06/95D NOSIG RMK QBB110 OBST OBSC QFE759/1012
UMKK 150230Z 12001MPS 3200 0350E PRFG BR SCT003 08/08 Q1014 R06/CLRD95 NOSIG RMK QBB110 OBST OBSC QFE759/1012
UMKK 150200Z 07002MPS 1000 0250E R06/1300D PRFG BR SCT003 08/08 Q1014 R06/CLRD95 NOSIG RMK QBB110 OBST OBSC QFE759/1012
UMKK 150130Z 06001MPS 0200 0150E PRFG SCT004 09/08 Q1014 R06/CLRD95 NOSIG RMK QBB120 OBST OBSC QFE759/1012
UMKK 150100Z 00000MPS 0400 0250S PRFG SCT004 09/08 Q1014 R06/CLRD95 NOSIG RMK QBB120 OBST OBSC QFE759/1013
UMKK 150030Z 00000MPS 0350 0250E PRFG SCT004 09/09 Q1014 R06/CLRD95 NOSIG RMK QBB120 OBST OBSC QFE759/1013
UMKK 150000Z 00000MPS 0350 0150S PRFG NSC 09/09 Q1014 R06/CLRD95 NOSIG RMK QFE759/1013
UMKK 142330Z 00000MPS 0250 0150S PRFG NSC 09/09 Q1014 R06/CLRD95 NOSIG RMK QFE760/1013
UMKK 142300Z 00000MPS 9000 0250E R24/0750U PRFG NSC 10/09 Q1014 R24/CLRD95 NOSIG RMK QFE760/1013
UMKK 142230Z 00000MPS 9000 0250E R24/0650U PRFG 10/10 Q1014 R24/CLRD95 NOSIG RMK QFE760/1013
UMKK 142200Z 00000MPS 9999 2600E BR NSC 11/10 Q1014 R24/95D NOSIG RMK QFE759/1013
UMKK 142130Z 00000MPS 8000 NSC 11/10 Q1014 R24/CLRD95 NOSIG RMK QFE760/1013
UMKK 142100Z 17001MPS CAVOK 11/10 Q1015 R24/95D NOSIG RMK QFE760/1013
UMKK 142030Z 00000MPS CAVOK 13/12 Q1015 R24/CLRD95 NOSIG RMK QFE760/1013
UMKK 142000Z 00000MPS CAVOK 13/12 Q1015 R24/95D NOSIG RMK QFE760/1013
UMKK 141930Z 12001MPS CAVOK 14/12 Q1015 R24/95D NOSIG RMK QFE760/1014
UMKK 141900Z 11001MPS CAVOK 15/13 Q1015 R24/CLRD95 NOSIG RMK QFE760/1014
UMKK 141830Z 08002MPS CAVOK 17/14 Q1015 R24/CLRD95 NOSIG RMK QFE760/1014